createdAt,value
2022-12-16T00:01:41.277Z,211.88
2022-12-16T00:04:08.604Z,223.63
2022-12-16T00:06:38.702Z,220.70
2022-12-16T00:09:08.225Z,209.02
2022-12-16T00:11:36.179Z,207.85
2022-12-16T00:14:03.243Z,204.48
2022-12-16T00:16:30.907Z,200.10
2022-12-16T00:19:00.800Z,194.38
2022-12-16T00:21:28.220Z,194.57
2022-12-16T00:23:56.440Z,183.50
2022-12-16T00:26:24.333Z,174.98
2022-12-16T00:28:51.465Z,152.15
2022-12-16T00:31:19.205Z,142.52
2022-12-16T00:33:48.777Z,131.52
2022-12-16T00:36:16.144Z,126.07
2022-12-16T00:38:43.143Z,122.10
2022-12-16T00:41:10.638Z,129.48
2022-12-16T00:43:40.192Z,141.10
2022-12-16T00:46:07.566Z,140.80
2022-12-16T00:48:34.941Z,125.90
2022-12-16T00:51:02.529Z,121.70
2022-12-16T00:53:29.798Z,125.28
2022-12-16T00:56:09.069Z,115.90
2022-12-16T00:58:36.953Z,116.05
2022-12-16T01:01:05.589Z,105.55
2022-12-16T01:03:33.334Z,100.97
2022-12-16T01:06:00.836Z,96.50
2022-12-16T01:08:28.098Z,90.93
2022-12-16T01:10:57.395Z,82.47
2022-12-16T01:13:26.845Z,86.20
2022-12-16T01:16:00.351Z,87.18
2022-12-16T01:18:27.385Z,84.70
2022-12-16T01:20:54.876Z,84.95
2022-12-16T01:23:21.998Z,93.40
2022-12-16T01:25:55.644Z,90.82
2022-12-16T01:28:24.984Z,95.45
2022-12-16T01:31:03.899Z,95.15
2022-12-16T01:33:33.541Z,100.63
2022-12-16T01:36:07.235Z,96.57
2022-12-16T01:38:35.560Z,95.78
2022-12-16T01:41:03.917Z,89.32
2022-12-16T01:43:34.971Z,98.00
2022-12-16T01:46:14.917Z,99.63
2022-12-16T01:48:56.437Z,109.07
2022-12-16T01:51:26.590Z,121.28
2022-12-16T01:54:00.629Z,114.60
2022-12-16T01:56:31.687Z,134.13
2022-12-16T01:59:00.149Z,146.15
2022-12-16T02:01:27.747Z,151.48
2022-12-16T02:03:58.817Z,136.57
2022-12-16T02:06:28.731Z,137.63
2022-12-16T02:09:00.943Z,142.32
2022-12-16T02:11:43.244Z,148.32
2022-12-16T02:14:21.991Z,149.90
2022-12-16T02:17:21.444Z,161.32
2022-12-16T02:19:51.517Z,165.70
2022-12-16T02:22:43.507Z,158.05
2022-12-16T02:25:19.982Z,162.88
2022-12-16T02:27:58.703Z,170.00
2022-12-16T02:30:37.923Z,167.15
2022-12-16T02:33:14.124Z,162.05
2022-12-16T02:35:50.331Z,167.43
2022-12-16T02:38:32.217Z,157.13
2022-12-16T02:41:26.659Z,160.88
2022-12-16T02:44:01.535Z,152.57
2022-12-16T02:46:38.929Z,153.05
2022-12-16T02:49:09.012Z,154.60
2022-12-16T02:51:38.224Z,154.32
2022-12-16T02:54:07.659Z,153.70
2022-12-16T02:56:54.891Z,157.55
2022-12-16T02:59:40.375Z,160.02
2022-12-16T03:02:26.866Z,157.07
2022-12-16T03:04:54.410Z,167.50
2022-12-16T03:07:24.677Z,161.48
2022-12-16T03:09:53.816Z,155.48
2022-12-16T03:12:22.908Z,161.25
2022-12-16T03:14:54.595Z,155.13
2022-12-16T03:17:27.637Z,161.65
2022-12-16T03:20:09.207Z,129.35
2022-12-16T03:22:40.881Z,162.15
2022-12-16T03:25:09.203Z,159.43
2022-12-16T03:27:46.894Z,160.95
2022-12-16T03:30:19.868Z,165.85
2022-12-16T03:32:52.532Z,167.07
2022-12-16T03:35:25.513Z,160.50
2022-12-16T03:37:56.411Z,170.65
2022-12-16T03:40:25.496Z,167.10
2022-12-16T03:42:56.954Z,177.38
2022-12-16T03:45:29.091Z,163.30
2022-12-16T03:47:58.382Z,165.77
2022-12-16T03:50:32.405Z,171.35
2022-12-16T03:53:04.832Z,135.93
2022-12-16T03:55:32.746Z,180.50
2022-12-16T03:57:59.885Z,171.43
2022-12-16T04:00:27.202Z,166.40
2022-12-16T04:02:54.719Z,178.90
2022-12-16T04:05:22.924Z,180.30
2022-12-16T04:07:50.076Z,175.40
2022-12-16T04:10:17.978Z,175.55
2022-12-16T04:12:45.145Z,173.82
2022-12-16T04:15:12.525Z,178.95
2022-12-16T04:17:39.782Z,169.93
2022-12-16T04:20:15.919Z,173.82
2022-12-16T04:22:43.990Z,172.95
2022-12-16T04:25:20.852Z,169.88
2022-12-16T04:27:52.564Z,164.77
2022-12-16T04:30:21.115Z,164.48
2022-12-16T04:33:11.758Z,156.95
2022-12-16T04:35:41.585Z,159.85
2022-12-16T04:38:08.854Z,171.75
2022-12-16T04:40:36.190Z,160.90
2022-12-16T04:43:03.577Z,163.27
2022-12-16T04:45:31.151Z,157.40
2022-12-16T04:48:01.014Z,162.50
2022-12-16T04:50:30.598Z,156.75
2022-12-16T04:52:57.913Z,159.20
2022-12-16T04:55:25.503Z,149.88
2022-12-16T04:57:54.650Z,153.15
2022-12-16T05:00:22.312Z,146.32
2022-12-16T05:02:51.715Z,144.48
2022-12-16T05:05:19.200Z,150.13
2022-12-16T05:07:46.381Z,147.77
2022-12-16T05:10:13.710Z,143.02
2022-12-16T05:12:41.017Z,140.52
2022-12-16T05:15:08.944Z,142.07
2022-12-16T05:17:36.034Z,143.18
2022-12-16T05:20:04.126Z,143.40
2022-12-16T05:22:31.283Z,144.35
2022-12-16T05:24:58.583Z,137.10
2022-12-16T05:27:25.621Z,153.82
2022-12-16T05:29:53.219Z,142.48
2022-12-16T05:32:20.264Z,140.35
2022-12-16T05:34:47.586Z,137.48
2022-12-16T05:37:17.200Z,135.30
2022-12-16T05:39:46.945Z,148.18
2022-12-16T05:42:14.014Z,140.15
2022-12-16T05:44:44.001Z,137.57
2022-12-16T05:47:11.266Z,141.60
2022-12-16T05:49:38.843Z,137.35
2022-12-16T05:52:08.840Z,157.35
2022-12-16T05:54:36.358Z,148.20
2022-12-16T05:57:03.535Z,140.60
2022-12-16T05:59:33.593Z,137.10
2022-12-16T06:02:00.809Z,136.23
2022-12-16T06:04:28.592Z,145.38
2022-12-16T06:06:55.765Z,126.18
2022-12-16T06:09:23.385Z,135.05
2022-12-16T06:11:51.041Z,137.80
2022-12-16T06:14:18.570Z,135.55
2022-12-16T06:16:47.964Z,136.68
2022-12-16T06:19:17.972Z,133.07
2022-12-16T06:21:45.110Z,125.60
2022-12-16T06:24:15.031Z,128.55
2022-12-16T06:26:42.354Z,120.35
2022-12-16T06:29:12.536Z,126.55
2022-12-16T06:31:39.656Z,131.75
2022-12-16T06:34:07.180Z,117.75
2022-12-16T06:36:34.414Z,123.28
2022-12-16T06:39:01.869Z,119.97
2022-12-16T06:41:31.142Z,123.70
2022-12-16T06:43:58.667Z,114.90
2022-12-16T06:46:25.844Z,118.60
2022-12-16T06:48:55.466Z,117.05
2022-12-16T06:51:25.041Z,124.72
2022-12-16T06:53:52.353Z,118.20
2022-12-16T06:56:19.572Z,117.97
2022-12-16T06:58:47.209Z,108.68
2022-12-16T07:01:14.411Z,110.25
2022-12-16T07:03:42.302Z,109.13
2022-12-16T07:06:10.030Z,106.70
2022-12-16T07:08:37.739Z,112.85
2022-12-16T07:11:16.043Z,104.53
2022-12-16T07:13:45.515Z,101.25
2022-12-16T07:16:15.210Z,103.70
2022-12-16T07:18:42.652Z,104.53
2022-12-16T07:21:12.172Z,105.60
2022-12-16T07:23:39.643Z,104.30
2022-12-16T07:26:06.737Z,102.65
2022-12-16T07:28:34.343Z,103.93
2022-12-16T07:31:03.894Z,109.80
2022-12-16T07:33:31.451Z,106.72
2022-12-16T07:35:58.973Z,121.22
2022-12-16T07:38:26.329Z,104.93
2022-12-16T07:40:53.342Z,104.78
2022-12-16T07:43:21.048Z,106.10
2022-12-16T07:45:48.257Z,100.60
2022-12-16T07:48:15.706Z,107.22
2022-12-16T07:50:43.109Z,106.10
2022-12-16T07:53:10.449Z,106.45
2022-12-16T07:55:37.462Z,105.47
2022-12-16T07:58:05.131Z,106.32
2022-12-16T08:00:34.525Z,106.72
2022-12-16T08:03:02.005Z,106.55
2022-12-16T08:05:29.374Z,108.00
2022-12-16T08:07:56.829Z,101.20
2022-12-16T08:10:23.883Z,97.82
2022-12-16T08:12:51.542Z,102.75
2022-12-16T08:15:18.655Z,96.90
2022-12-16T08:17:50.655Z,98.07
2022-12-16T08:20:22.052Z,110.78
2022-12-16T08:22:51.916Z,97.47
2022-12-16T08:25:21.891Z,88.97
2022-12-16T08:27:56.831Z,96.53
2022-12-16T08:30:23.849Z,84.47
2022-12-16T08:32:57.181Z,88.32
2022-12-16T08:35:26.213Z,88.28
2022-12-16T08:37:57.185Z,82.40
2022-12-16T08:40:35.439Z,85.97
2022-12-16T08:43:10.973Z,77.28
2022-12-16T08:45:40.311Z,86.10
2022-12-16T08:48:08.173Z,86.30
2022-12-16T08:50:35.229Z,82.28
2022-12-16T08:53:04.873Z,81.07
2022-12-16T08:55:32.019Z,80.97
2022-12-16T08:57:59.524Z,83.95
2022-12-16T09:00:29.177Z,82.97
2022-12-16T09:02:57.864Z,82.72
2022-12-16T09:05:25.185Z,82.95
2022-12-16T09:07:52.570Z,83.95
2022-12-16T09:10:22.055Z,86.63
2022-12-16T09:12:49.451Z,81.95
2022-12-16T09:15:19.114Z,83.13
2022-12-16T09:17:52.995Z,80.28
2022-12-16T09:20:22.973Z,77.10
2022-12-16T09:22:53.069Z,76.75
2022-12-16T09:25:22.388Z,74.75
2022-12-16T09:27:50.360Z,82.63
2022-12-16T09:30:18.280Z,76.30
2022-12-16T09:32:47.857Z,80.10
2022-12-16T10:29:22.609Z,93.65
2022-12-16T10:31:50.733Z,85.63
2022-12-16T10:34:27.941Z,85.60
2022-12-16T10:36:58.087Z,77.50
2022-12-16T10:39:31.560Z,79.68
2022-12-16T10:44:48.131Z,80.18
2022-12-16T10:47:15.741Z,83.50
2022-12-16T10:49:42.975Z,83.07
2022-12-16T10:52:13.026Z,79.63
2022-12-16T10:54:46.638Z,80.65
2022-12-16T10:57:33.009Z,87.47
2022-12-16T11:00:21.728Z,80.80
2022-12-16T11:02:49.172Z,81.88
2022-12-16T11:05:26.571Z,83.22
2022-12-16T11:07:56.430Z,82.55
2022-12-16T11:10:34.268Z,76.22
2022-12-16T11:13:20.882Z,81.68
2022-12-16T11:16:24.666Z,76.00
2022-12-16T11:18:54.391Z,79.00
2022-12-16T11:21:22.767Z,94.25
2022-12-16T11:24:12.132Z,86.65
2022-12-16T11:26:56.284Z,85.03
2022-12-16T11:32:01.224Z,80.82
2022-12-16T11:34:28.808Z,84.05
2022-12-16T11:36:56.782Z,82.00
2022-12-16T11:39:29.203Z,86.00
2022-12-16T11:41:59.341Z,77.80
2022-12-16T11:44:55.780Z,80.72
2022-12-16T11:47:40.119Z,82.47
2022-12-16T11:50:17.087Z,85.03
2022-12-16T11:52:55.352Z,83.18
2022-12-16T11:55:48.076Z,83.25
2022-12-16T11:58:23.209Z,80.38
2022-12-16T12:01:20.400Z,84.32
2022-12-16T12:03:50.857Z,81.70
2022-12-16T12:06:29.065Z,81.75
2022-12-16T12:09:17.245Z,79.30
2022-12-16T12:12:12.049Z,84.57
2022-12-16T12:14:57.216Z,79.45
2022-12-16T12:17:31.874Z,84.35
2022-12-16T12:20:10.552Z,87.60
2022-12-16T12:22:39.676Z,85.70
2022-12-16T12:25:21.505Z,89.00
2022-12-16T12:28:00.673Z,84.53
2022-12-16T12:30:29.794Z,89.68
2022-12-16T12:33:15.771Z,87.90
2022-12-16T12:36:23.244Z,86.40
2022-12-16T12:38:50.606Z,87.22
2022-12-16T12:41:43.910Z,91.07
2022-12-16T12:44:36.930Z,69.70
2022-12-16T12:47:17.653Z,87.15
2022-12-16T12:50:07.019Z,86.00
2022-12-16T12:52:48.877Z,99.47
2022-12-16T12:55:32.200Z,87.43
2022-12-16T12:58:00.414Z,98.45
2022-12-16T13:00:32.868Z,85.93
2022-12-16T13:03:15.159Z,96.45
2022-12-16T13:05:43.831Z,96.13
2022-12-16T13:08:54.247Z,96.53
2022-12-16T13:11:25.420Z,91.05
2022-12-16T13:13:55.659Z,93.65
2022-12-16T13:16:44.433Z,92.80
2022-12-16T13:19:30.192Z,91.65
2022-12-16T13:21:57.838Z,88.07
2022-12-16T13:24:49.084Z,87.47
2022-12-16T13:27:19.644Z,92.43
2022-12-16T13:30:04.468Z,94.55
2022-12-16T13:32:33.469Z,88.53
2022-12-16T13:35:00.826Z,90.15
2022-12-16T13:37:32.549Z,87.70
2022-12-16T13:40:16.750Z,89.47
2022-12-16T13:42:44.225Z,94.80
2022-12-16T13:45:31.861Z,91.30
2022-12-16T13:48:01.085Z,98.88
2022-12-16T13:50:48.329Z,96.05
2022-12-16T13:53:18.043Z,93.43
2022-12-16T13:55:56.598Z,93.40
2022-12-16T13:58:39.269Z,92.03
2022-12-16T14:01:12.793Z,105.18
2022-12-16T14:03:45.296Z,97.43
2022-12-16T14:06:21.733Z,99.50
2022-12-16T14:08:49.567Z,99.43
2022-12-16T14:11:40.562Z,102.22
2022-12-16T14:14:20.020Z,102.35
2022-12-16T14:16:53.087Z,104.28
2022-12-16T14:19:57.716Z,105.85
2022-12-16T14:22:47.851Z,108.90
2022-12-16T14:25:23.231Z,105.60
2022-12-16T14:27:53.405Z,104.75
2022-12-16T14:30:28.064Z,100.85
2022-12-16T14:32:57.677Z,101.28
2022-12-16T14:35:27.777Z,103.45
2022-12-16T14:37:54.781Z,105.15
2022-12-16T14:40:30.055Z,104.97
2022-12-16T14:42:59.687Z,105.07
2022-12-16T14:49:52.287Z,104.80
2022-12-16T14:52:25.717Z,107.32
2022-12-16T15:19:19.132Z,118.22
2022-12-16T15:30:27.606Z,105.78
2022-12-16T15:32:56.619Z,105.72
2022-12-16T15:35:25.479Z,104.47
2022-12-16T15:37:52.898Z,106.78
2022-12-16T15:40:23.046Z,104.53
2022-12-16T15:42:52.989Z,111.13
2022-12-16T15:45:32.894Z,113.60
2022-12-16T15:48:11.074Z,108.38
2022-12-16T15:50:38.474Z,109.72
2022-12-16T15:53:29.435Z,100.95
2022-12-16T15:56:04.707Z,107.20
2022-12-16T15:58:35.611Z,111.95
2022-12-16T16:01:02.882Z,106.97
2022-12-16T16:03:32.319Z,107.78
2022-12-16T16:06:02.474Z,122.68
2022-12-16T16:08:36.118Z,114.60
2022-12-16T16:11:05.755Z,102.68
2022-12-16T16:13:35.709Z,111.72
2022-12-16T16:16:06.168Z,107.55
2022-12-16T16:18:34.398Z,112.88
2022-12-16T16:21:04.228Z,112.03
2022-12-16T16:23:32.651Z,102.22
2022-12-16T16:26:03.818Z,108.78
2022-12-16T16:28:35.100Z,109.35
2022-12-16T16:31:02.487Z,110.25
2022-12-16T16:33:29.874Z,108.15
2022-12-16T16:35:59.380Z,112.25
2022-12-16T16:38:29.282Z,107.85
2022-12-16T16:40:56.475Z,115.20
2022-12-16T16:43:24.836Z,119.05
2022-12-16T16:45:57.843Z,113.22
2022-12-16T16:48:27.041Z,119.97
2022-12-16T16:50:57.197Z,114.75
2022-12-16T16:53:24.479Z,113.00
2022-12-16T16:55:54.769Z,116.03
2022-12-16T16:58:27.175Z,117.07
2022-12-16T17:00:56.986Z,115.40
2022-12-16T17:03:24.878Z,114.78
2022-12-16T17:05:52.065Z,117.38
2022-12-16T17:08:19.749Z,111.10
2022-12-16T17:10:47.624Z,106.97
2022-12-16T17:13:14.996Z,109.38
2022-12-16T17:15:42.206Z,108.93
2022-12-16T17:18:12.160Z,111.25
2022-12-16T17:20:39.210Z,111.57
2022-12-16T17:23:07.000Z,111.53
2022-12-16T17:25:36.655Z,107.05
2022-12-16T17:28:07.236Z,109.90
2022-12-16T17:30:34.474Z,113.40
2022-12-16T17:33:02.439Z,112.28
2022-12-16T17:35:29.519Z,108.57
2022-12-16T17:37:57.265Z,108.20
2022-12-16T17:40:26.785Z,111.13
2022-12-16T17:42:54.100Z,106.88
2022-12-16T17:45:23.740Z,112.57
2022-12-16T17:47:51.265Z,108.00
2022-12-16T17:50:20.875Z,113.38
2022-12-16T17:52:52.978Z,111.75
2022-12-16T17:55:20.074Z,116.68
2022-12-16T17:57:47.384Z,113.15
2022-12-16T18:00:17.870Z,111.28
2022-12-16T18:02:45.696Z,112.95
2022-12-16T18:05:15.623Z,115.05
2022-12-16T18:07:43.170Z,111.45
2022-12-16T18:10:10.213Z,109.78
2022-12-16T18:12:37.931Z,114.63
2022-12-16T18:15:05.453Z,113.13
2022-12-16T18:17:32.829Z,120.22
2022-12-16T18:19:59.853Z,113.80
2022-12-16T18:22:27.378Z,119.65
2022-12-16T18:24:54.477Z,116.95
2022-12-16T18:27:21.765Z,120.30
2022-12-16T18:29:48.894Z,120.75
2022-12-16T18:32:16.346Z,117.88
2022-12-16T18:34:43.395Z,119.25
2022-12-16T18:37:13.865Z,125.88
2022-12-16T18:39:43.385Z,107.97
2022-12-16T18:42:13.242Z,113.75
2022-12-16T18:44:40.510Z,120.78
2022-12-16T18:47:10.407Z,120.68
2022-12-16T18:49:37.455Z,119.97
2022-12-16T18:52:07.500Z,114.95
2022-12-16T18:54:36.998Z,117.53
2022-12-16T18:57:04.333Z,124.25
2022-12-16T18:59:33.729Z,120.22
2022-12-16T19:02:01.205Z,120.90
2022-12-16T19:04:28.453Z,125.50
2022-12-16T19:06:58.157Z,125.03
2022-12-16T19:09:25.251Z,124.72
2022-12-16T19:11:52.633Z,132.02
2022-12-16T19:14:19.894Z,122.60
2022-12-16T19:16:49.723Z,124.38
2022-12-16T19:19:20.224Z,116.95
2022-12-16T19:21:51.752Z,133.57
2022-12-16T19:24:21.678Z,128.23
2022-12-16T19:26:49.447Z,130.32
2022-12-16T19:29:16.596Z,128.73
2022-12-16T19:31:44.221Z,138.65
2022-12-16T19:34:11.547Z,125.70
2022-12-16T19:36:43.826Z,126.22
2022-12-16T19:39:14.020Z,122.07
2022-12-16T19:41:41.470Z,133.18
2022-12-16T19:44:11.259Z,128.20
2022-12-16T19:46:43.302Z,131.15
2022-12-16T19:49:13.536Z,135.40
2022-12-16T19:51:41.113Z,131.70
2022-12-16T19:54:09.095Z,130.32
2022-12-16T19:56:36.527Z,134.35
2022-12-16T19:59:03.827Z,129.25
2022-12-16T20:01:31.463Z,133.60
2022-12-16T20:04:00.141Z,129.60
2022-12-16T20:06:27.660Z,131.40
2022-12-16T20:08:57.554Z,136.25
2022-12-16T20:11:24.867Z,131.65
2022-12-16T20:13:56.283Z,134.13
2022-12-16T20:16:23.729Z,127.50
2022-12-16T20:18:50.947Z,136.40
2022-12-16T20:21:21.789Z,129.07
2022-12-16T20:23:49.325Z,133.73
2022-12-16T20:26:16.937Z,134.93
2022-12-16T20:28:44.500Z,135.18
2022-12-16T20:31:11.893Z,129.40
2022-12-16T20:33:41.579Z,128.02
2022-12-16T20:36:10.135Z,128.07
2022-12-16T20:38:39.737Z,132.50
2022-12-16T20:41:09.354Z,125.10
2022-12-16T20:43:37.022Z,132.52
2022-12-16T20:46:04.862Z,129.55
2022-12-16T20:48:31.918Z,130.73
2022-12-16T20:51:03.733Z,127.45
2022-12-16T20:53:33.102Z,127.78
2022-12-16T20:56:03.558Z,125.05
2022-12-16T20:58:30.665Z,126.22
2022-12-16T21:00:58.136Z,126.78
2022-12-16T21:03:25.981Z,128.80
2022-12-16T21:05:54.125Z,132.20
2022-12-16T21:08:23.265Z,120.57
2022-12-16T21:10:51.634Z,127.68
2022-12-16T21:13:19.176Z,123.32
2022-12-16T21:15:46.557Z,124.45
2022-12-16T21:18:14.268Z,132.57
2022-12-16T21:20:41.684Z,126.70
2022-12-16T21:23:09.865Z,130.27
2022-12-16T21:25:38.487Z,128.48
2022-12-16T21:28:07.846Z,133.43
2022-12-16T21:30:35.362Z,129.68
2022-12-16T21:33:02.882Z,133.80
2022-12-16T21:35:30.250Z,132.25
2022-12-16T21:37:57.508Z,136.43
2022-12-16T21:40:27.515Z,140.18
2022-12-16T21:42:56.233Z,129.38
2022-12-16T21:45:26.552Z,129.05
2022-12-16T21:47:54.290Z,134.43
2022-12-16T21:50:23.626Z,128.30
2022-12-16T21:52:52.939Z,135.25
2022-12-16T21:55:26.019Z,134.18
2022-12-16T21:57:53.586Z,132.95
2022-12-16T22:00:23.936Z,135.05
2022-12-16T22:02:51.025Z,138.10
2022-12-16T22:05:19.737Z,133.85
2022-12-16T22:07:46.983Z,141.77
2022-12-16T22:10:16.818Z,136.77
2022-12-16T22:12:43.932Z,139.77
2022-12-16T22:15:13.800Z,135.77
2022-12-16T22:17:40.924Z,140.43
2022-12-16T22:20:13.270Z,136.23
2022-12-16T22:22:40.292Z,132.18
2022-12-16T22:25:14.227Z,128.73
2022-12-16T22:27:44.322Z,123.72
2022-12-16T22:30:14.184Z,136.23
2022-12-16T22:32:41.248Z,134.43
2022-12-16T22:35:09.267Z,141.05
2022-12-16T22:37:38.971Z,131.90
2022-12-16T22:40:09.287Z,133.65
2022-12-16T22:42:39.565Z,130.85
2022-12-16T22:45:07.177Z,133.40
2022-12-16T22:47:34.399Z,129.00
2022-12-16T22:50:02.156Z,133.75
2022-12-16T22:52:31.593Z,133.98
2022-12-16T22:54:59.320Z,127.03
2022-12-16T22:57:31.299Z,131.98
2022-12-16T23:00:01.032Z,136.10
2022-12-16T23:02:28.485Z,133.77
2022-12-16T23:04:58.369Z,127.40
2022-12-16T23:07:25.649Z,134.57
2022-12-16T23:12:40.419Z,134.73
2022-12-16T23:15:13.067Z,129.23
2022-12-16T23:17:42.562Z,129.70
2022-12-16T23:20:10.772Z,130.65
2022-12-16T23:22:40.440Z,117.70
2022-12-16T23:25:08.536Z,119.32
2022-12-16T23:27:36.807Z,123.47
2022-12-16T23:30:06.868Z,122.68
2022-12-16T23:35:01.578Z,133.25
2022-12-16T23:37:31.079Z,127.20
2022-12-16T23:40:01.041Z,132.68
2022-12-16T23:42:30.667Z,133.05
2022-12-16T23:44:57.961Z,131.85
2022-12-16T23:47:25.157Z,119.45
2022-12-16T23:49:56.388Z,128.27
2022-12-16T23:52:23.708Z,127.93
2022-12-16T23:54:53.383Z,131.50
2022-12-16T23:57:23.412Z,127.85
2022-12-16T23:59:51.037Z,132.23
